createdAt,value
2022-08-07T00:01:44.541Z,17.70
2022-08-07T00:04:09.493Z,17.70
2022-08-07T00:06:40.908Z,17.70
2022-08-07T00:09:22.271Z,17.70
2022-08-07T00:11:55.324Z,17.60
2022-08-07T00:14:25.437Z,17.70
2022-08-07T00:17:02.093Z,17.70
2022-08-07T00:20:00.556Z,17.60
2022-08-07T00:22:24.398Z,17.50
2022-08-07T00:25:11.040Z,17.40
2022-08-07T00:27:52.515Z,17.50
2022-08-07T00:30:27.644Z,17.50
2022-08-07T00:32:59.950Z,17.50
2022-08-07T00:35:30.106Z,17.60
2022-08-07T00:37:58.640Z,17.50
2022-08-07T00:40:36.636Z,17.50
2022-08-07T00:43:09.892Z,17.50
2022-08-07T00:45:40.407Z,17.40
2022-08-07T00:48:10.866Z,17.20
2022-08-07T00:50:43.731Z,17.20
2022-08-07T00:53:17.898Z,17.30
2022-08-07T00:56:02.630Z,17.30
2022-08-07T00:58:32.551Z,17.20
2022-08-07T01:00:59.948Z,16.90
2022-08-07T01:03:55.298Z,16.90
2022-08-07T01:06:15.688Z,17.00
2022-08-07T01:08:43.314Z,17.10
2022-08-07T01:12:09.537Z,17.10
2022-08-07T01:14:09.074Z,17.00
2022-08-07T01:16:37.143Z,17.10
2022-08-07T01:19:14.770Z,17.10
2022-08-07T01:21:48.979Z,17.10
2022-08-07T01:24:21.173Z,17.20
2022-08-07T01:26:52.153Z,17.20
2022-08-07T01:29:22.430Z,17.20
2022-08-07T01:31:51.531Z,17.20
2022-08-07T01:34:19.551Z,17.30
2022-08-07T01:36:52.676Z,17.20
2022-08-07T01:39:39.469Z,17.00
2022-08-07T01:42:39.394Z,16.90
2022-08-07T01:44:54.987Z,17.00
2022-08-07T01:48:20.310Z,17.10
2022-08-07T01:50:09.815Z,17.20
2022-08-07T01:52:49.422Z,17.20
2022-08-07T01:55:26.497Z,17.10
2022-08-07T01:58:06.788Z,17.00
2022-08-07T02:00:50.101Z,17.00
2022-08-07T02:03:26.542Z,17.10
2022-08-07T02:06:32.194Z,17.10
2022-08-07T02:09:03.650Z,17.00
2022-08-07T02:12:05.081Z,16.90
2022-08-07T02:14:35.644Z,16.80
2022-08-07T02:17:04.045Z,16.70
2022-08-07T02:20:04.432Z,16.60
2022-08-07T02:22:25.883Z,16.70
2022-08-07T02:24:55.847Z,16.80
2022-08-07T02:27:25.300Z,16.70
2022-08-07T02:29:55.040Z,16.70
2022-08-07T02:32:29.852Z,16.80
2022-08-07T02:35:00.886Z,16.90
2022-08-07T02:37:33.949Z,16.80
2022-08-07T02:40:29.874Z,16.90
2022-08-07T02:42:52.809Z,16.90
2022-08-07T02:45:58.635Z,16.90
2022-08-07T02:48:10.423Z,16.90
2022-08-07T02:50:44.671Z,17.00
2022-08-07T02:53:27.380Z,16.90
2022-08-07T02:56:03.267Z,16.90
2022-08-07T02:58:34.365Z,16.90
2022-08-07T03:01:03.281Z,16.90
2022-08-07T03:03:49.984Z,16.90
2022-08-07T03:06:25.473Z,16.90
2022-08-07T03:08:59.308Z,16.90
2022-08-07T03:11:28.277Z,16.80
2022-08-07T03:14:01.412Z,16.60
2022-08-07T03:16:30.471Z,16.60
2022-08-07T03:18:59.287Z,16.70
2022-08-07T03:21:28.048Z,16.60
2022-08-07T03:24:21.159Z,16.50
2022-08-07T03:26:58.444Z,16.50
2022-08-07T03:29:36.598Z,16.60
2022-08-07T03:32:12.821Z,16.70
2022-08-07T03:35:01.148Z,16.60
2022-08-07T03:37:32.454Z,16.60
2022-08-07T03:40:13.284Z,16.60
2022-08-07T03:42:44.089Z,16.70
2022-08-07T03:45:11.720Z,16.70
2022-08-07T03:47:47.602Z,16.80
2022-08-07T03:50:23.093Z,16.80
2022-08-07T03:52:52.023Z,16.80
2022-08-07T03:55:19.137Z,16.70
2022-08-07T03:58:32.402Z,16.40
2022-08-07T04:00:36.869Z,16.30
2022-08-07T04:03:05.252Z,16.30
2022-08-07T04:05:40.811Z,16.40
2022-08-07T04:08:18.388Z,16.50
2022-08-07T04:10:54.635Z,16.40
2022-08-07T04:14:10.478Z,16.50
2022-08-07T04:16:31.499Z,16.50
2022-08-07T04:19:01.832Z,16.30
2022-08-07T04:21:39.524Z,16.30
2022-08-07T04:24:34.283Z,16.40
2022-08-07T04:27:04.861Z,16.40
2022-08-07T04:29:49.003Z,16.40
2022-08-07T04:32:18.812Z,16.40
2022-08-07T04:35:07.153Z,16.40
2022-08-07T04:37:52.874Z,16.40
2022-08-07T04:40:29.734Z,16.40
2022-08-07T04:43:01.929Z,16.50
2022-08-07T04:46:01.227Z,16.60
2022-08-07T04:48:44.755Z,16.50
2022-08-07T04:51:14.559Z,16.50
2022-08-07T04:54:05.367Z,16.60
2022-08-07T04:58:15.734Z,16.70
2022-08-07T05:00:09.819Z,16.80
2022-08-07T05:02:58.972Z,16.60
2022-08-07T05:05:53.817Z,16.70
2022-08-07T05:08:59.199Z,16.90
2022-08-07T05:11:58.415Z,17.10
2022-08-07T05:14:53.824Z,17.10
2022-08-07T05:17:53.054Z,17.00
2022-08-07T05:20:14.845Z,17.00
2022-08-07T05:22:47.107Z,17.10
2022-08-07T05:25:25.637Z,17.30
2022-08-07T05:28:19.929Z,17.40
2022-08-07T05:30:54.426Z,17.50
2022-08-07T05:33:23.423Z,17.70
2022-08-07T05:35:52.896Z,17.80
2022-08-07T05:39:00.980Z,17.90
2022-08-07T05:41:14.548Z,17.80
2022-08-07T05:44:07.613Z,17.80
2022-08-07T05:46:37.677Z,17.90
2022-08-07T05:49:12.102Z,18.00
2022-08-07T05:51:43.613Z,17.90
2022-08-07T05:54:31.192Z,17.80
2022-08-07T05:57:03.486Z,17.90
2022-08-07T05:59:55.550Z,17.90
2022-08-07T06:02:29.274Z,18.10
2022-08-07T06:05:00.386Z,18.20
2022-08-07T06:08:13.169Z,18.20
2022-08-07T06:10:15.798Z,18.30
2022-08-07T06:12:42.687Z,18.40
2022-08-07T06:15:15.986Z,18.30
2022-08-07T06:17:53.870Z,18.30
2022-08-07T06:20:25.703Z,18.30
2022-08-07T06:23:46.809Z,18.30
2022-08-07T06:25:57.059Z,18.40
2022-08-07T06:28:27.553Z,18.50
2022-08-07T06:30:55.893Z,18.70
2022-08-07T06:33:24.267Z,18.70
2022-08-07T06:36:06.552Z,18.70
2022-08-07T06:38:39.295Z,18.70
2022-08-07T06:41:58.767Z,18.80
2022-08-07T06:44:12.652Z,18.80
2022-08-07T06:46:43.499Z,18.90
2022-08-07T06:49:21.103Z,19.10
2022-08-07T06:51:49.907Z,19.30
2022-08-07T06:55:33.880Z,19.30
2022-08-07T06:57:08.191Z,19.50
2022-08-07T07:00:11.978Z,19.50
2022-08-07T07:02:53.725Z,19.60
2022-08-07T07:06:01.932Z,19.70
2022-08-07T07:08:10.105Z,19.70
2022-08-07T07:10:54.944Z,19.70
2022-08-07T07:13:43.537Z,19.90
2022-08-07T07:16:23.798Z,20.00
2022-08-07T07:19:11.243Z,20.00
2022-08-07T07:22:05.172Z,19.80
2022-08-07T07:24:42.967Z,20.20
2022-08-07T07:27:17.252Z,20.30
2022-08-07T07:30:07.397Z,20.30
2022-08-07T07:32:41.018Z,20.20
2022-08-07T07:35:33.439Z,20.30
2022-08-07T07:38:05.753Z,20.70
2022-08-07T07:40:34.522Z,20.70
2022-08-07T07:43:15.388Z,20.80
2022-08-07T07:46:37.200Z,20.80
2022-08-07T07:48:36.486Z,20.70
2022-08-07T07:51:07.925Z,20.80
2022-08-07T07:53:51.916Z,21.00
2022-08-07T07:56:30.545Z,21.10
2022-08-07T07:59:02.787Z,21.00
2022-08-07T08:02:03.108Z,21.20
2022-08-07T08:04:20.324Z,21.30
2022-08-07T08:06:53.894Z,21.20
2022-08-07T08:09:25.132Z,21.10
2022-08-07T08:12:02.355Z,21.10
2022-08-07T08:14:32.040Z,21.10
2022-08-07T08:17:55.801Z,21.30
2022-08-07T08:20:19.642Z,21.40
2022-08-07T08:23:01.472Z,21.50
2022-08-07T08:25:51.147Z,21.30
2022-08-07T08:28:38.268Z,21.30
2022-08-07T08:31:16.287Z,21.50
2022-08-07T08:33:55.517Z,21.80
2022-08-07T08:36:30.007Z,21.40
2022-08-07T08:39:01.978Z,21.60
2022-08-07T08:41:58.356Z,21.70
2022-08-07T08:48:32.371Z,22.00
2022-08-07T08:51:49.195Z,21.90
2022-08-07T08:54:24.226Z,22.10
2022-08-07T08:56:53.962Z,22.40
2022-08-07T08:59:53.791Z,22.20
2022-08-07T09:02:39.476Z,22.10
2022-08-07T09:05:22.511Z,22.20
2022-08-07T09:08:03.067Z,22.70
2022-08-07T09:10:52.964Z,23.00
2022-08-07T09:13:43.848Z,22.90
2022-08-07T09:16:29.896Z,23.20
2022-08-07T09:19:51.354Z,23.40
2022-08-07T09:24:29.374Z,23.50
2022-08-07T09:25:37.716Z,23.40
2022-08-07T09:30:01.889Z,22.90
2022-08-07T09:31:38.592Z,23.40
2022-08-07T09:34:22.201Z,23.50
2022-08-07T09:37:01.316Z,23.90
2022-08-07T09:39:58.018Z,23.80
2022-08-07T09:42:51.390Z,23.70
2022-08-07T09:47:25.942Z,23.60
2022-08-07T09:50:02.498Z,23.80
2022-08-07T09:52:16.436Z,23.40
2022-08-07T09:54:55.749Z,23.50
2022-08-07T09:57:59.960Z,23.80
2022-08-07T10:00:32.723Z,23.90
2022-08-07T10:04:07.261Z,24.40
2022-08-07T10:18:50.737Z,23.90
2022-08-07T10:25:24.212Z,23.90
2022-08-07T10:35:53.588Z,24.50
2022-08-07T10:38:36.131Z,24.30
2022-08-07T10:49:49.574Z,24.70
2022-08-07T10:57:34.448Z,25.00
2022-08-07T11:04:23.314Z,24.90
2022-08-07T11:06:56.297Z,24.90
2022-08-07T11:10:09.260Z,25.10
2022-08-07T11:13:01.802Z,24.40
2022-08-07T11:15:34.235Z,24.70
2022-08-07T11:18:05.167Z,24.90
2022-08-07T11:20:32.034Z,25.10
2022-08-07T11:23:20.801Z,24.80
2022-08-07T11:26:34.679Z,24.90
2022-08-07T11:29:42.991Z,25.40
2022-08-07T11:32:25.657Z,25.80
2022-08-07T11:34:59.725Z,25.40
2022-08-07T11:37:57.847Z,25.40
2022-08-07T11:41:22.093Z,25.80
2022-08-07T11:48:29.536Z,25.30
2022-08-07T11:51:41.904Z,25.00
2022-08-07T11:54:25.604Z,25.40
2022-08-07T11:57:18.889Z,25.40
2022-08-07T12:00:11.186Z,25.50
2022-08-07T12:03:02.792Z,25.10
2022-08-07T12:05:49.846Z,25.20
2022-08-07T12:08:34.757Z,25.80
2022-08-07T12:11:21.979Z,26.00
2022-08-07T12:13:55.326Z,26.20
2022-08-07T12:16:30.375Z,26.00
2022-08-07T12:19:21.577Z,25.40
2022-08-07T12:22:37.475Z,25.70
2022-08-07T12:26:22.201Z,26.10
2022-08-07T12:28:16.047Z,26.20
2022-08-07T12:30:56.608Z,26.20
2022-08-07T12:33:31.039Z,26.00
2022-08-07T12:36:32.631Z,26.00
2022-08-07T12:39:09.287Z,25.90
2022-08-07T12:42:27.724Z,25.60
2022-08-07T12:45:19.707Z,25.50
2022-08-07T12:48:51.839Z,25.50
2022-08-07T12:51:21.925Z,25.40
2022-08-07T12:54:36.459Z,25.30
2022-08-07T12:56:59.240Z,25.40
2022-08-07T12:59:33.192Z,25.20
2022-08-07T13:02:55.887Z,25.20
2022-08-07T13:06:21.531Z,24.90
2022-08-07T13:10:22.028Z,24.80
2022-08-07T13:12:47.547Z,24.80
2022-08-07T13:15:23.745Z,24.80
2022-08-07T13:18:28.357Z,24.80
2022-08-07T13:21:03.902Z,24.90
2022-08-07T13:24:02.117Z,24.90
2022-08-07T13:26:46.090Z,24.80
2022-08-07T13:29:23.877Z,24.80
2022-08-07T13:35:59.839Z,24.90
2022-08-07T13:38:55.319Z,24.80
2022-08-07T13:41:47.483Z,24.70
2022-08-07T13:44:26.228Z,24.80
2022-08-07T13:46:59.499Z,24.90
2022-08-07T13:50:33.522Z,24.90
2022-08-07T13:52:32.167Z,24.90
2022-08-07T13:55:13.194Z,24.90
2022-08-07T13:58:01.691Z,24.90
2022-08-07T14:00:50.447Z,24.90
2022-08-07T14:03:29.991Z,24.90
2022-08-07T14:06:12.942Z,24.90
2022-08-07T14:08:44.609Z,24.90
2022-08-07T14:11:21.731Z,24.80
2022-08-07T14:13:56.043Z,24.80
2022-08-07T14:16:33.491Z,24.90
2022-08-07T14:19:03.241Z,24.90
2022-08-07T14:22:03.543Z,24.90
2022-08-07T14:24:42.447Z,25.00
2022-08-07T14:28:09.790Z,25.20
2022-08-07T14:30:11.579Z,25.30
2022-08-07T14:32:50.670Z,25.20
2022-08-07T14:35:44.559Z,25.20
2022-08-07T14:38:30.535Z,25.30
2022-08-07T14:41:02.241Z,25.20
2022-08-07T14:43:57.455Z,25.30
2022-08-07T14:46:31.337Z,25.20
2022-08-07T14:49:17.621Z,25.30
2022-08-07T14:52:03.842Z,25.50
2022-08-07T14:54:41.912Z,25.40
2022-08-07T14:57:15.016Z,25.60
2022-08-07T15:00:04.445Z,25.90
2022-08-07T15:02:34.955Z,26.00
2022-08-07T15:05:19.760Z,25.60
2022-08-07T15:07:51.701Z,25.40
2022-08-07T15:16:40.918Z,25.30
2022-08-07T15:20:30.196Z,25.20
2022-08-07T15:25:21.146Z,25.10
2022-08-07T15:28:32.207Z,25.20
2022-08-07T15:31:04.992Z,25.10
2022-08-07T15:33:35.980Z,25.00
2022-08-07T15:36:06.264Z,24.90
2022-08-07T15:42:46.616Z,24.70
2022-08-07T15:44:18.964Z,24.70
2022-08-07T15:46:52.922Z,24.70
2022-08-07T15:50:04.234Z,24.60
2022-08-07T15:52:17.074Z,24.60
2022-08-07T15:54:49.629Z,24.70
2022-08-07T15:57:39.481Z,24.70
2022-08-07T16:00:09.020Z,24.60
2022-08-07T16:02:59.230Z,24.50
2022-08-07T16:05:31.224Z,24.30
2022-08-07T16:08:32.778Z,24.10
2022-08-07T16:11:44.195Z,24.10
2022-08-07T16:14:34.778Z,24.00
2022-08-07T16:18:02.470Z,23.70
2022-08-07T16:21:57.077Z,23.20
2022-08-07T16:31:58.633Z,21.50
2022-08-07T16:39:00.095Z,21.60
2022-08-07T16:41:25.584Z,21.60
2022-08-07T16:48:13.686Z,21.40
2022-08-07T16:51:54.657Z,21.40
2022-08-07T16:58:01.863Z,21.30
2022-08-07T17:00:41.623Z,21.20
2022-08-07T17:07:13.611Z,21.30
2022-08-07T17:10:06.314Z,21.10
2022-08-07T17:12:48.626Z,21.10
2022-08-07T17:15:44.398Z,21.20
2022-08-07T17:30:12.531Z,21.10
2022-08-07T17:32:30.985Z,21.20
2022-08-07T17:35:51.267Z,21.20
2022-08-07T17:38:33.574Z,21.20
2022-08-07T17:41:12.399Z,21.20
2022-08-07T17:44:02.262Z,21.20
2022-08-07T17:46:36.699Z,21.20
2022-08-07T17:49:23.850Z,21.10
2022-08-07T17:52:18.365Z,21.00
2022-08-07T17:54:53.576Z,21.00
2022-08-07T17:57:56.302Z,21.00
2022-08-07T18:00:34.777Z,21.00
2022-08-07T18:04:03.935Z,20.80
2022-08-07T18:06:38.347Z,20.80
2022-08-07T18:09:08.695Z,20.80
2022-08-07T18:12:19.536Z,20.70
2022-08-07T18:14:59.845Z,20.60
2022-08-07T18:18:44.994Z,20.50
2022-08-07T18:21:08.887Z,20.50
2022-08-07T18:23:43.297Z,20.60
2022-08-07T18:26:18.233Z,20.50
2022-08-07T18:33:10.431Z,20.40
2022-08-07T18:36:17.744Z,20.40
2022-08-07T18:40:08.710Z,20.40
2022-08-07T18:50:39.674Z,20.30
2022-08-07T19:08:46.416Z,20.00
2022-08-07T19:15:00.592Z,19.70
2022-08-07T19:17:59.401Z,19.60
2022-08-07T19:36:43.906Z,19.60
2022-08-07T19:46:58.057Z,18.90
2022-08-07T19:49:58.216Z,18.80
2022-08-07T19:52:18.737Z,19.00
2022-08-07T19:59:00.047Z,19.20
2022-08-07T20:01:52.888Z,19.40
2022-08-07T20:04:31.857Z,19.40
2022-08-07T20:06:59.908Z,19.40
2022-08-07T20:13:27.156Z,19.20
2022-08-07T20:16:00.949Z,19.00
2022-08-07T20:22:13.836Z,18.90
2022-08-07T20:28:59.016Z,19.20
2022-08-07T20:41:38.495Z,18.90
2022-08-07T20:44:12.857Z,19.00
2022-08-07T20:47:25.005Z,19.00
2022-08-07T20:50:43.531Z,19.00
2022-08-07T20:53:13.639Z,19.00
2022-08-07T20:55:46.129Z,18.90
2022-08-07T20:58:19.673Z,18.80
2022-08-07T21:01:03.453Z,18.80
2022-08-07T21:03:31.091Z,18.90
2022-08-07T21:06:21.418Z,19.00
2022-08-07T21:09:02.876Z,19.00
2022-08-07T21:11:50.281Z,19.00
2022-08-07T21:14:32.995Z,19.10
2022-08-07T21:18:06.255Z,19.10
2022-08-07T21:20:05.340Z,19.00
2022-08-07T21:22:45.155Z,18.90
2022-08-07T21:25:29.649Z,18.90
2022-08-07T21:28:16.889Z,18.80
2022-08-07T21:31:15.135Z,18.80
2022-08-07T21:33:52.167Z,18.70
2022-08-07T21:36:32.610Z,18.60
2022-08-07T21:39:51.830Z,18.50
2022-08-07T21:42:48.509Z,18.50
2022-08-07T21:46:05.169Z,18.60
2022-08-07T21:48:34.464Z,18.60
2022-08-07T21:51:20.102Z,18.70
2022-08-07T21:53:55.115Z,18.80
2022-08-07T21:56:47.829Z,18.80
2022-08-07T21:59:36.274Z,18.80
2022-08-07T22:02:34.401Z,18.90
2022-08-07T22:05:03.899Z,18.90
2022-08-07T22:07:57.879Z,18.80
2022-08-07T22:10:26.105Z,18.70
2022-08-07T22:12:59.391Z,18.70
2022-08-07T22:16:43.567Z,18.80
2022-08-07T22:18:37.256Z,18.80
2022-08-07T22:21:22.311Z,18.60
2022-08-07T22:23:58.078Z,18.50
2022-08-07T22:26:35.525Z,18.50
2022-08-07T22:29:15.185Z,18.50
2022-08-07T22:32:33.453Z,18.60
2022-08-07T22:35:02.563Z,18.60
2022-08-07T22:38:03.487Z,18.70
2022-08-07T22:41:29.131Z,18.70
2022-08-07T22:44:18.455Z,18.60
2022-08-07T22:47:24.946Z,18.50
2022-08-07T22:50:20.740Z,18.60
2022-08-07T22:53:03.684Z,18.60
2022-08-07T22:55:59.577Z,18.40
2022-08-07T22:59:05.080Z,18.20
2022-08-07T23:01:51.182Z,18.30
2022-08-07T23:04:29.945Z,18.40
2022-08-07T23:07:28.415Z,18.40
2022-08-07T23:10:42.960Z,18.10
2022-08-07T23:14:15.274Z,18.00
2022-08-07T23:16:55.686Z,18.00
2022-08-07T23:20:19.076Z,18.00
2022-08-07T23:23:13.942Z,18.10
2022-08-07T23:26:25.018Z,18.10
2022-08-07T23:29:17.094Z,18.00
2022-08-07T23:34:20.070Z,18.00
2022-08-07T23:35:23.872Z,18.10
2022-08-07T23:38:06.348Z,18.20
2022-08-07T23:40:52.952Z,18.20
2022-08-07T23:43:52.724Z,18.20
2022-08-07T23:46:28.500Z,18.20
2022-08-07T23:49:50.726Z,18.00
2022-08-07T23:53:11.765Z,17.90
2022-08-07T23:55:56.162Z,18.00
2022-08-07T23:58:45.681Z,17.80
